sensor_id;sensor_type;location;lat;lon;timestamp;P1;durP1;ratioP1;P2;durP2;ratioP2
13590;SDS011;6866;50.778;7.206;2023-05-07T00:01:49;6.55;;;2.60;;
13590;SDS011;6866;50.778;7.206;2023-05-07T00:04:14;5.78;;;2.60;;
13590;SDS011;6866;50.778;7.206;2023-05-07T00:06:40;4.63;;;2.40;;
13590;SDS011;6866;50.778;7.206;2023-05-07T00:09:06;5.15;;;2.83;;
13590;SDS011;6866;50.778;7.206;2023-05-07T00:11:32;6.10;;;2.80;;
13590;SDS011;6866;50.778;7.206;2023-05-07T00:13:58;4.78;;;2.80;;
13590;SDS011;6866;50.778;7.206;2023-05-07T00:16:24;8.40;;;3.13;;
13590;SDS011;6866;50.778;7.206;2023-05-07T00:18:49;3.95;;;2.70;;
13590;SDS011;6866;50.778;7.206;2023-05-07T00:21:15;5.07;;;2.75;;
13590;SDS011;6866;50.778;7.206;2023-05-07T00:23:41;6.47;;;3.05;;
13590;SDS011;6866;50.778;7.206;2023-05-07T00:26:06;5.13;;;2.58;;
13590;SDS011;6866;50.778;7.206;2023-05-07T00:28:32;4.15;;;2.65;;
13590;SDS011;6866;50.778;7.206;2023-05-07T00:30:57;6.70;;;3.03;;
13590;SDS011;6866;50.778;7.206;2023-05-07T00:33:23;7.00;;;3.50;;
13590;SDS011;6866;50.778;7.206;2023-05-07T00:35:48;7.30;;;3.20;;
13590;SDS011;6866;50.778;7.206;2023-05-07T00:38:14;7.00;;;2.90;;
13590;SDS011;6866;50.778;7.206;2023-05-07T00:40:40;8.57;;;3.22;;
13590;SDS011;6866;50.778;7.206;2023-05-07T00:43:05;6.90;;;2.90;;
13590;SDS011;6866;50.778;7.206;2023-05-07T00:45:31;9.18;;;3.08;;
13590;SDS011;6866;50.778;7.206;2023-05-07T00:47:59;4.75;;;2.63;;
13590;SDS011;6866;50.778;7.206;2023-05-07T00:50:26;6.75;;;3.05;;
13590;SDS011;6866;50.778;7.206;2023-05-07T00:52:53;5.85;;;2.88;;
13590;SDS011;6866;50.778;7.206;2023-05-07T00:55:19;5.28;;;2.67;;
13590;SDS011;6866;50.778;7.206;2023-05-07T00:57:45;5.78;;;3.15;;
13590;SDS011;6866;50.778;7.206;2023-05-07T01:05:22;8.18;;;3.13;;
13590;SDS011;6866;50.778;7.206;2023-05-07T01:07:48;6.60;;;3.15;;
13590;SDS011;6866;50.778;7.206;2023-05-07T01:10:16;6.35;;;2.90;;
13590;SDS011;6866;50.778;7.206;2023-05-07T01:12:43;5.15;;;2.90;;
13590;SDS011;6866;50.778;7.206;2023-05-07T01:15:09;5.10;;;2.97;;
13590;SDS011;6866;50.778;7.206;2023-05-07T01:17:35;10.52;;;3.28;;
13590;SDS011;6866;50.778;7.206;2023-05-07T01:20:04;5.47;;;2.90;;
13590;SDS011;6866;50.778;7.206;2023-05-07T01:22:34;8.20;;;2.85;;
13590;SDS011;6866;50.778;7.206;2023-05-07T01:25:01;4.22;;;2.67;;
13590;SDS011;6866;50.778;7.206;2023-05-07T01:27:32;6.15;;;2.83;;
13590;SDS011;6866;50.778;7.206;2023-05-07T01:29:58;4.93;;;3.00;;
13590;SDS011;6866;50.778;7.206;2023-05-07T01:33:25;7.20;;;3.75;;
13590;SDS011;6866;50.778;7.206;2023-05-07T01:35:25;6.90;;;3.20;;
13590;SDS011;6866;50.778;7.206;2023-05-07T01:37:55;10.15;;;3.10;;
13590;SDS011;6866;50.778;7.206;2023-05-07T01:40:22;5.88;;;2.50;;
13590;SDS011;6866;50.778;7.206;2023-05-07T01:42:49;5.40;;;3.00;;
13590;SDS011;6866;50.778;7.206;2023-05-07T01:45:15;6.28;;;2.75;;
13590;SDS011;6866;50.778;7.206;2023-05-07T01:47:41;7.95;;;2.97;;
13590;SDS011;6866;50.778;7.206;2023-05-07T01:50:07;6.25;;;3.33;;
13590;SDS011;6866;50.778;7.206;2023-05-07T01:52:34;5.45;;;2.85;;
13590;SDS011;6866;50.778;7.206;2023-05-07T01:55:02;6.38;;;3.22;;
13590;SDS011;6866;50.778;7.206;2023-05-07T01:57:28;4.68;;;3.00;;
13590;SDS011;6866;50.778;7.206;2023-05-07T01:59:53;6.32;;;3.03;;
13590;SDS011;6866;50.778;7.206;2023-05-07T02:02:19;5.60;;;3.08;;
13590;SDS011;6866;50.778;7.206;2023-05-07T02:04:45;7.88;;;3.22;;
13590;SDS011;6866;50.778;7.206;2023-05-07T02:07:10;4.63;;;3.00;;
13590;SDS011;6866;50.778;7.206;2023-05-07T02:09:36;5.85;;;3.38;;
13590;SDS011;6866;50.778;7.206;2023-05-07T02:12:03;7.22;;;3.28;;
13590;SDS011;6866;50.778;7.206;2023-05-07T02:14:29;5.95;;;3.50;;
13590;SDS011;6866;50.778;7.206;2023-05-07T02:16:54;7.85;;;3.38;;
13590;SDS011;6866;50.778;7.206;2023-05-07T02:19:20;6.50;;;3.40;;
13590;SDS011;6866;50.778;7.206;2023-05-07T02:21:46;5.47;;;3.40;;
13590;SDS011;6866;50.778;7.206;2023-05-07T02:24:12;6.50;;;3.50;;
13590;SDS011;6866;50.778;7.206;2023-05-07T02:26:38;12.85;;;3.42;;
13590;SDS011;6866;50.778;7.206;2023-05-07T02:29:04;6.97;;;3.25;;
13590;SDS011;6866;50.778;7.206;2023-05-07T02:31:30;7.47;;;3.35;;
13590;SDS011;6866;50.778;7.206;2023-05-07T02:33:55;9.90;;;3.60;;
13590;SDS011;6866;50.778;7.206;2023-05-07T02:36:21;6.78;;;3.30;;
13590;SDS011;6866;50.778;7.206;2023-05-07T02:38:46;6.00;;;3.58;;
13590;SDS011;6866;50.778;7.206;2023-05-07T02:41:12;6.55;;;3.45;;
13590;SDS011;6866;50.778;7.206;2023-05-07T02:43:37;7.65;;;3.88;;
13590;SDS011;6866;50.778;7.206;2023-05-07T02:46:04;6.65;;;3.20;;
13590;SDS011;6866;50.778;7.206;2023-05-07T02:48:30;7.28;;;3.53;;
13590;SDS011;6866;50.778;7.206;2023-05-07T02:50:56;6.10;;;3.40;;
13590;SDS011;6866;50.778;7.206;2023-05-07T02:53:22;6.72;;;3.20;;
13590;SDS011;6866;50.778;7.206;2023-05-07T02:55:50;5.32;;;3.17;;
13590;SDS011;6866;50.778;7.206;2023-05-07T02:58:17;5.85;;;3.35;;
13590;SDS011;6866;50.778;7.206;2023-05-07T03:00:42;6.03;;;3.50;;
13590;SDS011;6866;50.778;7.206;2023-05-07T03:03:08;5.47;;;3.40;;
13590;SDS011;6866;50.778;7.206;2023-05-07T03:05:33;7.13;;;3.10;;
13590;SDS011;6866;50.778;7.206;2023-05-07T03:07:59;5.68;;;3.78;;
13590;SDS011;6866;50.778;7.206;2023-05-07T03:10:24;6.47;;;3.10;;
13590;SDS011;6866;50.778;7.206;2023-05-07T03:12:50;5.60;;;3.17;;
13590;SDS011;6866;50.778;7.206;2023-05-07T03:15:15;4.55;;;2.97;;
13590;SDS011;6866;50.778;7.206;2023-05-07T03:17:41;5.20;;;3.20;;
13590;SDS011;6866;50.778;7.206;2023-05-07T03:20:07;9.38;;;3.60;;
13590;SDS011;6866;50.778;7.206;2023-05-07T03:22:34;7.35;;;3.28;;
13590;SDS011;6866;50.778;7.206;2023-05-07T03:24:59;6.97;;;3.40;;
13590;SDS011;6866;50.778;7.206;2023-05-07T03:27:25;5.18;;;3.22;;
13590;SDS011;6866;50.778;7.206;2023-05-07T03:29:50;7.47;;;3.55;;
13590;SDS011;6866;50.778;7.206;2023-05-07T03:32:16;7.80;;;3.20;;
13590;SDS011;6866;50.778;7.206;2023-05-07T03:34:42;5.70;;;3.17;;
13590;SDS011;6866;50.778;7.206;2023-05-07T03:37:07;6.20;;;3.50;;
13590;SDS011;6866;50.778;7.206;2023-05-07T03:39:33;5.28;;;3.50;;
13590;SDS011;6866;50.778;7.206;2023-05-07T03:41:58;6.93;;;3.20;;
13590;SDS011;6866;50.778;7.206;2023-05-07T03:44:24;6.93;;;3.30;;
13590;SDS011;6866;50.778;7.206;2023-05-07T03:46:49;5.40;;;3.13;;
13590;SDS011;6866;50.778;7.206;2023-05-07T03:49:15;6.88;;;3.60;;
13590;SDS011;6866;50.778;7.206;2023-05-07T03:51:40;6.72;;;3.25;;
13590;SDS011;6866;50.778;7.206;2023-05-07T03:54:07;8.07;;;3.65;;
13590;SDS011;6866;50.778;7.206;2023-05-07T03:56:32;6.75;;;3.10;;
13590;SDS011;6866;50.778;7.206;2023-05-07T03:58:58;7.90;;;3.33;;
13590;SDS011;6866;50.778;7.206;2023-05-07T04:01:24;6.22;;;2.88;;
13590;SDS011;6866;50.778;7.206;2023-05-07T04:03:50;6.28;;;3.10;;
13590;SDS011;6866;50.778;7.206;2023-05-07T04:06:16;6.75;;;3.33;;
13590;SDS011;6866;50.778;7.206;2023-05-07T04:08:44;8.38;;;3.55;;
13590;SDS011;6866;50.778;7.206;2023-05-07T04:11:09;7.95;;;3.35;;
13590;SDS011;6866;50.778;7.206;2023-05-07T04:13:35;4.75;;;2.75;;
13590;SDS011;6866;50.778;7.206;2023-05-07T04:16:01;5.45;;;3.22;;
13590;SDS011;6866;50.778;7.206;2023-05-07T04:18:27;6.35;;;2.85;;
13590;SDS011;6866;50.778;7.206;2023-05-07T04:20:53;5.00;;;3.15;;
13590;SDS011;6866;50.778;7.206;2023-05-07T04:23:19;7.75;;;3.33;;
13590;SDS011;6866;50.778;7.206;2023-05-07T04:25:44;6.32;;;3.40;;
13590;SDS011;6866;50.778;7.206;2023-05-07T04:28:10;6.47;;;3.08;;
13590;SDS011;6866;50.778;7.206;2023-05-07T04:30:36;4.63;;;2.72;;
13590;SDS011;6866;50.778;7.206;2023-05-07T04:33:02;4.80;;;3.15;;
13590;SDS011;6866;50.778;7.206;2023-05-07T04:35:27;3.70;;;2.70;;
13590;SDS011;6866;50.778;7.206;2023-05-07T04:37:53;5.85;;;2.88;;
13590;SDS011;6866;50.778;7.206;2023-05-07T04:40:18;7.60;;;2.97;;
13590;SDS011;6866;50.778;7.206;2023-05-07T04:42:44;6.30;;;3.17;;
13590;SDS011;6866;50.778;7.206;2023-05-07T04:45:10;6.85;;;3.00;;
13590;SDS011;6866;50.778;7.206;2023-05-07T04:47:37;5.65;;;3.10;;
13590;SDS011;6866;50.778;7.206;2023-05-07T04:50:03;6.60;;;2.85;;
13590;SDS011;6866;50.778;7.206;2023-05-07T04:52:29;5.00;;;2.90;;
13590;SDS011;6866;50.778;7.206;2023-05-07T04:54:54;6.22;;;3.47;;
13590;SDS011;6866;50.778;7.206;2023-05-07T04:57:20;6.80;;;3.10;;
13590;SDS011;6866;50.778;7.206;2023-05-07T04:59:46;6.40;;;3.30;;
13590;SDS011;6866;50.778;7.206;2023-05-07T05:02:11;5.60;;;3.35;;
13590;SDS011;6866;50.778;7.206;2023-05-07T05:04:37;9.52;;;3.55;;
13590;SDS011;6866;50.778;7.206;2023-05-07T05:07:02;6.68;;;3.20;;
13590;SDS011;6866;50.778;7.206;2023-05-07T05:09:29;5.35;;;3.10;;
13590;SDS011;6866;50.778;7.206;2023-05-07T05:11:55;8.35;;;3.30;;
13590;SDS011;6866;50.778;7.206;2023-05-07T05:14:20;5.93;;;2.90;;
13590;SDS011;6866;50.778;7.206;2023-05-07T05:16:46;7.47;;;3.08;;
13590;SDS011;6866;50.778;7.206;2023-05-07T05:19:11;6.43;;;3.42;;
13590;SDS011;6866;50.778;7.206;2023-05-07T05:21:37;5.88;;;3.67;;
13590;SDS011;6866;50.778;7.206;2023-05-07T05:24:02;6.60;;;2.90;;
13590;SDS011;6866;50.778;7.206;2023-05-07T05:26:28;6.22;;;3.15;;
13590;SDS011;6866;50.778;7.206;2023-05-07T05:28:54;9.43;;;3.17;;
13590;SDS011;6866;50.778;7.206;2023-05-07T05:31:19;6.40;;;3.00;;
13590;SDS011;6866;50.778;7.206;2023-05-07T05:33:45;4.25;;;2.42;;
13590;SDS011;6866;50.778;7.206;2023-05-07T05:36:10;5.68;;;2.70;;
13590;SDS011;6866;50.778;7.206;2023-05-07T05:38:37;6.15;;;2.65;;
13590;SDS011;6866;50.778;7.206;2023-05-07T05:41:04;11.63;;;3.38;;
13590;SDS011;6866;50.778;7.206;2023-05-07T05:43:29;4.28;;;2.38;;
13590;SDS011;6866;50.778;7.206;2023-05-07T05:45:55;3.22;;;2.28;;
13590;SDS011;6866;50.778;7.206;2023-05-07T05:48:21;6.15;;;2.58;;
13590;SDS011;6866;50.778;7.206;2023-05-07T05:50:47;7.22;;;2.72;;
13590;SDS011;6866;50.778;7.206;2023-05-07T05:53:13;4.40;;;2.53;;
13590;SDS011;6866;50.778;7.206;2023-05-07T05:55:38;6.07;;;2.67;;
13590;SDS011;6866;50.778;7.206;2023-05-07T05:58:04;5.70;;;2.58;;
13590;SDS011;6866;50.778;7.206;2023-05-07T06:00:30;9.27;;;3.00;;
13590;SDS011;6866;50.778;7.206;2023-05-07T06:02:55;7.32;;;2.83;;
13590;SDS011;6866;50.778;7.206;2023-05-07T06:05:21;7.38;;;2.53;;
13590;SDS011;6866;50.778;7.206;2023-05-07T06:07:47;5.38;;;2.70;;
13590;SDS011;6866;50.778;7.206;2023-05-07T06:10:12;6.10;;;2.80;;
13590;SDS011;6866;50.778;7.206;2023-05-07T06:12:38;7.68;;;2.60;;
13590;SDS011;6866;50.778;7.206;2023-05-07T06:15:03;5.43;;;2.38;;
13590;SDS011;6866;50.778;7.206;2023-05-07T06:17:29;4.15;;;2.40;;
13590;SDS011;6866;50.778;7.206;2023-05-07T06:19:55;5.22;;;2.38;;
13590;SDS011;6866;50.778;7.206;2023-05-07T06:22:21;6.97;;;2.25;;
13590;SDS011;6866;50.778;7.206;2023-05-07T06:24:46;3.60;;;2.20;;
13590;SDS011;6866;50.778;7.206;2023-05-07T06:27:12;6.35;;;2.15;;
13590;SDS011;6866;50.778;7.206;2023-05-07T06:29:37;6.18;;;2.25;;
13590;SDS011;6866;50.778;7.206;2023-05-07T06:32:09;5.00;;;2.10;;
13590;SDS011;6866;50.778;7.206;2023-05-07T06:34:36;6.03;;;2.08;;
13590;SDS011;6866;50.778;7.206;2023-05-07T06:37:02;4.10;;;2.25;;
13590;SDS011;6866;50.778;7.206;2023-05-07T06:39:28;6.07;;;2.30;;
13590;SDS011;6866;50.778;7.206;2023-05-07T06:41:54;5.28;;;2.05;;
13590;SDS011;6866;50.778;7.206;2023-05-07T06:44:19;5.85;;;2.25;;
13590;SDS011;6866;50.778;7.206;2023-05-07T06:46:45;5.20;;;2.00;;
13590;SDS011;6866;50.778;7.206;2023-05-07T06:49:14;6.63;;;2.30;;
13590;SDS011;6866;50.778;7.206;2023-05-07T06:51:39;5.93;;;2.20;;
13590;SDS011;6866;50.778;7.206;2023-05-07T06:54:05;11.43;;;2.60;;
13590;SDS011;6866;50.778;7.206;2023-05-07T06:56:31;4.07;;;2.13;;
13590;SDS011;6866;50.778;7.206;2023-05-07T06:58:57;6.40;;;2.20;;
13590;SDS011;6866;50.778;7.206;2023-05-07T07:01:24;8.73;;;2.30;;
13590;SDS011;6866;50.778;7.206;2023-05-07T07:03:50;3.80;;;2.20;;
13590;SDS011;6866;50.778;7.206;2023-05-07T07:06:16;4.38;;;2.10;;
13590;SDS011;6866;50.778;7.206;2023-05-07T07:08:41;3.63;;;1.90;;
13590;SDS011;6866;50.778;7.206;2023-05-07T07:11:08;4.70;;;2.00;;
13590;SDS011;6866;50.778;7.206;2023-05-07T07:13:35;5.30;;;2.22;;
13590;SDS011;6866;50.778;7.206;2023-05-07T07:16:00;7.32;;;2.80;;
13590;SDS011;6866;50.778;7.206;2023-05-07T07:18:26;5.60;;;2.00;;
13590;SDS011;6866;50.778;7.206;2023-05-07T07:20:51;4.80;;;2.00;;
13590;SDS011;6866;50.778;7.206;2023-05-07T07:23:17;5.43;;;1.88;;
13590;SDS011;6866;50.778;7.206;2023-05-07T07:25:43;4.75;;;1.80;;
13590;SDS011;6866;50.778;7.206;2023-05-07T07:28:09;4.32;;;2.03;;
13590;SDS011;6866;50.778;7.206;2023-05-07T07:30:35;5.13;;;1.88;;
13590;SDS011;6866;50.778;7.206;2023-05-07T07:33:01;5.25;;;2.03;;
13590;SDS011;6866;50.778;7.206;2023-05-07T07:35:30;4.85;;;2.08;;
13590;SDS011;6866;50.778;7.206;2023-05-07T07:37:56;7.45;;;2.05;;
13590;SDS011;6866;50.778;7.206;2023-05-07T07:40:22;7.63;;;2.22;;
13590;SDS011;6866;50.778;7.206;2023-05-07T07:42:48;3.65;;;1.80;;
13590;SDS011;6866;50.778;7.206;2023-05-07T07:45:14;4.65;;;2.08;;
13590;SDS011;6866;50.778;7.206;2023-05-07T07:47:40;4.95;;;2.17;;
13590;SDS011;6866;50.778;7.206;2023-05-07T07:50:05;3.25;;;1.90;;
13590;SDS011;6866;50.778;7.206;2023-05-07T07:52:32;3.83;;;1.90;;
13590;SDS011;6866;50.778;7.206;2023-05-07T07:54:57;5.32;;;2.00;;
13590;SDS011;6866;50.778;7.206;2023-05-07T07:57:23;3.40;;;1.75;;
13590;SDS011;6866;50.778;7.206;2023-05-07T07:59:49;4.47;;;2.00;;
13590;SDS011;6866;50.778;7.206;2023-05-07T08:02:15;3.90;;;1.88;;
13590;SDS011;6866;50.778;7.206;2023-05-07T08:04:41;7.53;;;2.55;;
13590;SDS011;6866;50.778;7.206;2023-05-07T08:07:08;5.75;;;2.17;;
13590;SDS011;6866;50.778;7.206;2023-05-07T08:09:37;4.25;;;2.13;;
13590;SDS011;6866;50.778;7.206;2023-05-07T08:12:03;4.88;;;2.15;;
13590;SDS011;6866;50.778;7.206;2023-05-07T08:14:30;3.63;;;2.08;;
13590;SDS011;6866;50.778;7.206;2023-05-07T08:16:55;5.47;;;2.05;;
13590;SDS011;6866;50.778;7.206;2023-05-07T08:19:21;5.60;;;2.20;;
13590;SDS011;6866;50.778;7.206;2023-05-07T08:21:47;4.80;;;1.70;;
13590;SDS011;6866;50.778;7.206;2023-05-07T08:24:13;5.72;;;2.20;;
13590;SDS011;6866;50.778;7.206;2023-05-07T08:26:39;3.88;;;1.80;;
13590;SDS011;6866;50.778;7.206;2023-05-07T08:29:05;5.00;;;2.10;;
13590;SDS011;6866;50.778;7.206;2023-05-07T08:31:31;3.45;;;1.85;;
13590;SDS011;6866;50.778;7.206;2023-05-07T08:33:57;6.45;;;1.95;;
13590;SDS011;6866;50.778;7.206;2023-05-07T08:36:23;7.28;;;2.10;;
13590;SDS011;6866;50.778;7.206;2023-05-07T08:38:49;4.97;;;2.08;;
13590;SDS011;6866;50.778;7.206;2023-05-07T08:41:15;4.60;;;2.10;;
13590;SDS011;6866;50.778;7.206;2023-05-07T08:43:41;4.95;;;1.95;;
13590;SDS011;6866;50.778;7.206;2023-05-07T08:46:08;4.55;;;2.08;;
13590;SDS011;6866;50.778;7.206;2023-05-07T08:48:36;4.95;;;1.73;;
13590;SDS011;6866;50.778;7.206;2023-05-07T08:51:02;3.85;;;1.80;;
13590;SDS011;6866;50.778;7.206;2023-05-07T08:53:28;3.58;;;1.65;;
13590;SDS011;6866;50.778;7.206;2023-05-07T08:55:53;4.78;;;2.15;;
13590;SDS011;6866;50.778;7.206;2023-05-07T08:58:19;3.40;;;1.65;;
13590;SDS011;6866;50.778;7.206;2023-05-07T09:00:45;3.75;;;1.75;;
13590;SDS011;6866;50.778;7.206;2023-05-07T09:03:12;2.53;;;1.52;;
13590;SDS011;6866;50.778;7.206;2023-05-07T09:05:38;5.10;;;1.60;;
13590;SDS011;6866;50.778;7.206;2023-05-07T09:08:05;4.30;;;1.70;;
13590;SDS011;6866;50.778;7.206;2023-05-07T09:10:34;4.80;;;1.95;;
13590;SDS011;6866;50.778;7.206;2023-05-07T09:13:00;4.28;;;1.85;;
13590;SDS011;6866;50.778;7.206;2023-05-07T09:15:26;4.45;;;1.83;;
13590;SDS011;6866;50.778;7.206;2023-05-07T09:17:53;4.00;;;2.03;;
13590;SDS011;6866;50.778;7.206;2023-05-07T09:20:18;4.18;;;1.85;;
13590;SDS011;6866;50.778;7.206;2023-05-07T09:22:44;3.42;;;1.65;;
13590;SDS011;6866;50.778;7.206;2023-05-07T09:25:09;4.28;;;1.90;;
13590;SDS011;6866;50.778;7.206;2023-05-07T09:27:35;5.13;;;1.80;;
13590;SDS011;6866;50.778;7.206;2023-05-07T09:30:05;3.60;;;1.60;;
13590;SDS011;6866;50.778;7.206;2023-05-07T09:32:34;6.15;;;2.05;;
13590;SDS011;6866;50.778;7.206;2023-05-07T09:35:02;4.35;;;1.88;;
13590;SDS011;6866;50.778;7.206;2023-05-07T09:37:30;5.38;;;1.73;;
13590;SDS011;6866;50.778;7.206;2023-05-07T09:39:56;4.32;;;1.60;;
13590;SDS011;6866;50.778;7.206;2023-05-07T09:42:24;3.08;;;1.55;;
13590;SDS011;6866;50.778;7.206;2023-05-07T09:44:51;4.20;;;1.63;;
13590;SDS011;6866;50.778;7.206;2023-05-07T09:47:20;2.85;;;1.83;;
13590;SDS011;6866;50.778;7.206;2023-05-07T09:49:49;6.43;;;1.50;;
13590;SDS011;6866;50.778;7.206;2023-05-07T09:52:19;6.75;;;1.90;;
13590;SDS011;6866;50.778;7.206;2023-05-07T09:54:45;3.65;;;1.77;;
13590;SDS011;6866;50.778;7.206;2023-05-07T09:57:14;4.30;;;1.75;;
13590;SDS011;6866;50.778;7.206;2023-05-07T09:59:42;2.83;;;1.65;;
13590;SDS011;6866;50.778;7.206;2023-05-07T10:02:09;3.33;;;1.70;;
13590;SDS011;6866;50.778;7.206;2023-05-07T10:04:35;3.00;;;1.70;;
13590;SDS011;6866;50.778;7.206;2023-05-07T10:07:01;3.53;;;1.60;;
13590;SDS011;6866;50.778;7.206;2023-05-07T10:09:29;3.95;;;1.50;;
13590;SDS011;6866;50.778;7.206;2023-05-07T10:11:55;3.60;;;1.73;;
13590;SDS011;6866;50.778;7.206;2023-05-07T10:14:22;3.33;;;1.48;;
13590;SDS011;6866;50.778;7.206;2023-05-07T10:16:48;6.53;;;1.88;;
13590;SDS011;6866;50.778;7.206;2023-05-07T10:19:14;3.65;;;1.77;;
13590;SDS011;6866;50.778;7.206;2023-05-07T10:21:43;4.28;;;1.58;;
13590;SDS011;6866;50.778;7.206;2023-05-07T10:24:16;2.47;;;1.45;;
13590;SDS011;6866;50.778;7.206;2023-05-07T10:26:47;5.10;;;1.75;;
13590;SDS011;6866;50.778;7.206;2023-05-07T10:29:39;3.70;;;1.90;;
13590;SDS011;6866;50.778;7.206;2023-05-07T10:35:17;5.70;;;1.63;;
13590;SDS011;6866;50.778;7.206;2023-05-07T10:37:45;2.47;;;1.45;;
13590;SDS011;6866;50.778;7.206;2023-05-07T10:40:11;4.70;;;1.50;;
13590;SDS011;6866;50.778;7.206;2023-05-07T10:42:37;5.20;;;1.73;;
13590;SDS011;6866;50.778;7.206;2023-05-07T10:45:13;4.85;;;3.10;;
13590;SDS011;6866;50.778;7.206;2023-05-07T10:50:30;3.55;;;1.50;;
13590;SDS011;6866;50.778;7.206;2023-05-07T10:53:20;3.67;;;1.50;;
13590;SDS011;6866;50.778;7.206;2023-05-07T10:55:52;4.72;;;1.63;;
13590;SDS011;6866;50.778;7.206;2023-05-07T10:58:43;3.72;;;1.70;;
13590;SDS011;6866;50.778;7.206;2023-05-07T11:01:09;4.10;;;1.80;;
13590;SDS011;6866;50.778;7.206;2023-05-07T11:03:37;4.15;;;1.38;;
13590;SDS011;6866;50.778;7.206;2023-05-07T11:06:42;3.03;;;1.33;;
13590;SDS011;6866;50.778;7.206;2023-05-07T11:15:07;2.88;;;1.50;;
13590;SDS011;6866;50.778;7.206;2023-05-07T11:17:53;6.68;;;1.88;;
13590;SDS011;6866;50.778;7.206;2023-05-07T11:26:02;3.90;;;1.38;;
13590;SDS011;6866;50.778;7.206;2023-05-07T11:28:39;2.20;;;1.13;;
13590;SDS011;6866;50.778;7.206;2023-05-07T11:31:06;3.25;;;1.20;;
13590;SDS011;6866;50.778;7.206;2023-05-07T11:33:33;6.88;;;2.40;;
13590;SDS011;6866;50.778;7.206;2023-05-07T11:35:59;3.63;;;2.15;;
13590;SDS011;6866;50.778;7.206;2023-05-07T11:38:27;4.68;;;1.65;;
13590;SDS011;6866;50.778;7.206;2023-05-07T11:40:55;2.75;;;1.25;;
13590;SDS011;6866;50.778;7.206;2023-05-07T11:43:21;2.60;;;1.20;;
13590;SDS011;6866;50.778;7.206;2023-05-07T11:45:47;5.75;;;1.35;;
13590;SDS011;6866;50.778;7.206;2023-05-07T11:48:14;2.90;;;1.23;;
13590;SDS011;6866;50.778;7.206;2023-05-07T11:53:25;4.00;;;1.35;;
13590;SDS011;6866;50.778;7.206;2023-05-07T11:55:52;3.80;;;1.52;;
13590;SDS011;6866;50.778;7.206;2023-05-07T11:58:20;4.32;;;1.50;;
13590;SDS011;6866;50.778;7.206;2023-05-07T12:00:50;3.95;;;1.38;;
13590;SDS011;6866;50.778;7.206;2023-05-07T12:03:17;2.97;;;1.27;;
13590;SDS011;6866;50.778;7.206;2023-05-07T12:05:43;4.40;;;1.40;;
13590;SDS011;6866;50.778;7.206;2023-05-07T12:08:19;3.10;;;1.60;;
13590;SDS011;6866;50.778;7.206;2023-05-07T12:10:47;3.78;;;1.30;;
13590;SDS011;6866;50.778;7.206;2023-05-07T12:13:14;2.28;;;1.20;;
13590;SDS011;6866;50.778;7.206;2023-05-07T12:15:43;4.72;;;1.23;;
13590;SDS011;6866;50.778;7.206;2023-05-07T12:18:12;3.50;;;1.30;;
13590;SDS011;6866;50.778;7.206;2023-05-07T12:20:38;2.67;;;1.40;;
13590;SDS011;6866;50.778;7.206;2023-05-07T12:23:04;2.38;;;1.30;;
13590;SDS011;6866;50.778;7.206;2023-05-07T12:25:40;3.13;;;1.33;;
13590;SDS011;6866;50.778;7.206;2023-05-07T12:28:14;3.40;;;1.60;;
13590;SDS011;6866;50.778;7.206;2023-05-07T12:30:45;4.38;;;1.58;;
13590;SDS011;6866;50.778;7.206;2023-05-07T12:33:12;4.50;;;1.40;;
13590;SDS011;6866;50.778;7.206;2023-05-07T12:35:43;3.20;;;1.20;;
13590;SDS011;6866;50.778;7.206;2023-05-07T12:38:10;4.32;;;1.30;;
13590;SDS011;6866;50.778;7.206;2023-05-07T12:40:40;3.15;;;1.23;;
13590;SDS011;6866;50.778;7.206;2023-05-07T12:43:06;2.35;;;1.20;;
13590;SDS011;6866;50.778;7.206;2023-05-07T12:45:38;4.03;;;1.30;;
13590;SDS011;6866;50.778;7.206;2023-05-07T12:48:06;4.28;;;1.40;;
13590;SDS011;6866;50.778;7.206;2023-05-07T12:50:32;3.75;;;1.30;;
13590;SDS011;6866;50.778;7.206;2023-05-07T12:52:58;2.75;;;1.20;;
13590;SDS011;6866;50.778;7.206;2023-05-07T12:55:24;3.65;;;1.30;;
13590;SDS011;6866;50.778;7.206;2023-05-07T12:57:50;4.80;;;1.40;;
13590;SDS011;6866;50.778;7.206;2023-05-07T13:00:17;3.28;;;1.25;;
13590;SDS011;6866;50.778;7.206;2023-05-07T13:02:58;2.80;;;1.23;;
13590;SDS011;6866;50.778;7.206;2023-05-07T13:05:23;4.03;;;1.52;;
13590;SDS011;6866;50.778;7.206;2023-05-07T13:07:55;4.35;;;1.38;;
13590;SDS011;6866;50.778;7.206;2023-05-07T13:10:22;2.58;;;1.40;;
13590;SDS011;6866;50.778;7.206;2023-05-07T13:12:48;2.78;;;1.30;;
13590;SDS011;6866;50.778;7.206;2023-05-07T13:15:14;4.18;;;1.48;;
13590;SDS011;6866;50.778;7.206;2023-05-07T13:17:40;4.35;;;1.60;;
13590;SDS011;6866;50.778;7.206;2023-05-07T13:20:05;6.78;;;1.63;;
13590;SDS011;6866;50.778;7.206;2023-05-07T13:22:33;3.50;;;1.70;;
13590;SDS011;6866;50.778;7.206;2023-05-07T13:24:58;4.05;;;1.50;;
13590;SDS011;6866;50.778;7.206;2023-05-07T13:27:24;5.20;;;1.40;;
13590;SDS011;6866;50.778;7.206;2023-05-07T13:29:50;2.90;;;1.60;;
13590;SDS011;6866;50.778;7.206;2023-05-07T13:32:15;3.45;;;1.48;;
13590;SDS011;6866;50.778;7.206;2023-05-07T13:34:41;3.55;;;1.45;;
13590;SDS011;6866;50.778;7.206;2023-05-07T13:37:07;3.35;;;1.45;;
13590;SDS011;6866;50.778;7.206;2023-05-07T13:39:32;2.97;;;1.45;;
13590;SDS011;6866;50.778;7.206;2023-05-07T13:41:58;4.32;;;1.63;;
13590;SDS011;6866;50.778;7.206;2023-05-07T13:44:24;2.85;;;1.25;;
13590;SDS011;6866;50.778;7.206;2023-05-07T13:46:51;3.38;;;1.35;;
13590;SDS011;6866;50.778;7.206;2023-05-07T13:49:16;3.42;;;1.52;;
13590;SDS011;6866;50.778;7.206;2023-05-07T13:51:42;2.85;;;1.20;;
13590;SDS011;6866;50.778;7.206;2023-05-07T13:54:08;4.57;;;1.38;;
13590;SDS011;6866;50.778;7.206;2023-05-07T13:56:33;2.20;;;1.30;;
13590;SDS011;6866;50.778;7.206;2023-05-07T13:58:59;2.95;;;1.33;;
13590;SDS011;6866;50.778;7.206;2023-05-07T14:01:24;2.33;;;1.00;;
13590;SDS011;6866;50.778;7.206;2023-05-07T14:03:50;2.80;;;1.20;;
13590;SDS011;6866;50.778;7.206;2023-05-07T14:06:15;3.20;;;1.20;;
13590;SDS011;6866;50.778;7.206;2023-05-07T14:08:41;2.35;;;1.10;;
13590;SDS011;6866;50.778;7.206;2023-05-07T14:11:06;2.72;;;0.90;;
13590;SDS011;6866;50.778;7.206;2023-05-07T14:13:32;2.92;;;0.90;;
13590;SDS011;6866;50.778;7.206;2023-05-07T14:15:59;2.85;;;1.00;;
13590;SDS011;6866;50.778;7.206;2023-05-07T14:18:25;2.45;;;1.20;;
13590;SDS011;6866;50.778;7.206;2023-05-07T14:20:51;4.75;;;1.30;;
13590;SDS011;6866;50.778;7.206;2023-05-07T14:23:16;2.55;;;1.20;;
13590;SDS011;6866;50.778;7.206;2023-05-07T14:25:44;4.28;;;1.40;;
13590;SDS011;6866;50.778;7.206;2023-05-07T14:28:11;3.55;;;1.48;;
13590;SDS011;6866;50.778;7.206;2023-05-07T14:30:36;3.38;;;1.40;;
13590;SDS011;6866;50.778;7.206;2023-05-07T14:33:02;3.10;;;1.50;;
13590;SDS011;6866;50.778;7.206;2023-05-07T14:35:27;4.07;;;1.65;;
13590;SDS011;6866;50.778;7.206;2023-05-07T14:37:53;5.72;;;1.50;;
13590;SDS011;6866;50.778;7.206;2023-05-07T14:40:18;4.30;;;2.20;;
13590;SDS011;6866;50.778;7.206;2023-05-07T14:42:44;3.00;;;1.75;;
13590;SDS011;6866;50.778;7.206;2023-05-07T14:45:10;3.33;;;1.60;;
13590;SDS011;6866;50.778;7.206;2023-05-07T14:47:35;4.53;;;1.70;;
13590;SDS011;6866;50.778;7.206;2023-05-07T14:50:01;3.78;;;1.42;;
13590;SDS011;6866;50.778;7.206;2023-05-07T14:52:26;6.43;;;1.90;;
13590;SDS011;6866;50.778;7.206;2023-05-07T14:54:52;3.00;;;1.70;;
13590;SDS011;6866;50.778;7.206;2023-05-07T14:57:17;3.90;;;1.70;;
13590;SDS011;6866;50.778;7.206;2023-05-07T14:59:44;5.40;;;2.10;;
13590;SDS011;6866;50.778;7.206;2023-05-07T15:02:11;4.15;;;2.15;;
13590;SDS011;6866;50.778;7.206;2023-05-07T15:04:37;5.47;;;2.13;;
13590;SDS011;6866;50.778;7.206;2023-05-07T15:07:04;4.68;;;2.10;;
13590;SDS011;6866;50.778;7.206;2023-05-07T15:09:30;5.07;;;2.33;;
13590;SDS011;6866;50.778;7.206;2023-05-07T15:11:55;6.63;;;2.10;;
13590;SDS011;6866;50.778;7.206;2023-05-07T15:14:21;4.95;;;2.40;;
13590;SDS011;6866;50.778;7.206;2023-05-07T15:16:47;4.28;;;2.28;;
13590;SDS011;6866;50.778;7.206;2023-05-07T15:19:13;4.85;;;2.28;;
13590;SDS011;6866;50.778;7.206;2023-05-07T15:21:39;4.60;;;2.40;;
13590;SDS011;6866;50.778;7.206;2023-05-07T15:24:05;6.45;;;2.42;;